Three Mile, North Carolina
Current Conditions -  °F | °C
As of 9:15 AM on Monday 26 Jan 2015 (Local Time) from KTNB Reporting Station
Light Snow Light Snow  
Wind Chill: 26°   Ceiling: 5000
Heat Index: 34°   Visibility: 10mi
Dew Point: 33°   Wind: 10mph
Humidity: 96%   Direction: 290°WNW
Pressure: 29.62"   Gusts: 18mph
Location:  36.0227°N, 81.9499°W
Report Text: KTNB 261415Z AUTO 29009G16KT 10SM -SN SCT008 SCT042 BKN050 01/01 A2962 RMK AO2 T00120006
Loading
Personal Weather Stations






























Interactive Weather Map New forecast layout! Learn more

10-Day Weather Forecast

Advertisements
Track Severe Weather on mobile